<?xml version="1.0" encoding="UTF-8" standalone="no" ?>
<gpx xmlns="http://www.topografix.com/GPX/1/1" xmlns:xsi="http://www.w3.org/2001/XMLSchema-instance" xsi:schemaLocation="http://www.topografix.com/GPX/1/1 http://www.topografix.com/GPX/1/1/gpx.xsd" version="1.1" creator="VisuGPX - https://www.visugpx.com">
  <metadata>
    <name>rando terrasson 17.23 km</name>
    <desc><![CDATA[rando superbe et très vallonnée a faire]]></desc>
  </metadata>
  <trk>
    <name><![CDATA[rando terrasson 17 km]]></name>
    <trkseg>
      <trkpt lat="45.12932" lon="1.30431">
        <ele>87</ele>
        <time>2017-06-11T19:05:17Z</time>
      </trkpt>
      <trkpt lat="45.12514" lon="1.30501">
        <ele>123</ele>
        <time>2017-06-11T19:15:17Z</time>
      </trkpt>
      <trkpt lat="45.12441" lon="1.30636">
        <ele>158</ele>
        <time>2017-06-11T19:19:17Z</time>
      </trkpt>
      <trkpt lat="45.12244" lon="1.30584">
        <ele>178</ele>
        <time>2017-06-11T19:21:17Z</time>
      </trkpt>
      <trkpt lat="45.12173" lon="1.30747">
        <ele>200</ele>
        <time>2017-06-11T19:25:17Z</time>
      </trkpt>
      <trkpt lat="45.11124" lon="1.31024">
        <ele>288</ele>
        <time>2017-06-11T19:35:17Z</time>
      </trkpt>
      <trkpt lat="45.10848" lon="1.31953">
        <ele>255</ele>
        <time>2017-06-11T19:47:17Z</time>
      </trkpt>
      <trkpt lat="45.10438" lon="1.32288">
        <ele>239</ele>
        <time>2017-06-11T19:59:17Z</time>
      </trkpt>
      <trkpt lat="45.10165" lon="1.32161">
        <ele>271</ele>
        <time>2017-06-11T20:11:17Z</time>
      </trkpt>
      <trkpt lat="45.10327" lon="1.31951">
        <ele>277</ele>
        <time>2017-06-11T20:19:17Z</time>
      </trkpt>
      <trkpt lat="45.09749" lon="1.31786">
        <ele>229</ele>
        <time>2017-06-11T20:31:17Z</time>
      </trkpt>
      <trkpt lat="45.09393" lon="1.31245">
        <ele>219</ele>
        <time>2017-06-11T20:51:17Z</time>
      </trkpt>
      <trkpt lat="45.09456" lon="1.31116">
        <ele>224</ele>
        <time>2017-06-11T20:53:17Z</time>
      </trkpt>
      <trkpt lat="45.08979" lon="1.30631">
        <ele>248</ele>
        <time>2017-06-11T21:11:17Z</time>
      </trkpt>
      <trkpt lat="45.08955" lon="1.30299">
        <ele>247</ele>
        <time>2017-06-11T21:17:17Z</time>
      </trkpt>
      <trkpt lat="45.0885" lon="1.30146">
        <ele>249</ele>
        <time>2017-06-11T21:21:17Z</time>
      </trkpt>
      <trkpt lat="45.08812" lon="1.29662">
        <ele>245</ele>
        <time>2017-06-11T21:31:17Z</time>
      </trkpt>
      <trkpt lat="45.08652" lon="1.29674">
        <ele>243</ele>
        <time>2017-06-11T21:39:17Z</time>
      </trkpt>
      <trkpt lat="45.09193" lon="1.2881">
        <ele>235</ele>
        <time>2017-06-11T21:59:17Z</time>
      </trkpt>
      <trkpt lat="45.09253" lon="1.28977">
        <ele>229</ele>
        <time>2017-06-11T22:03:17Z</time>
      </trkpt>
      <trkpt lat="45.0954" lon="1.28584">
        <ele>211</ele>
        <time>2017-06-11T22:13:17Z</time>
      </trkpt>
      <trkpt lat="45.09506" lon="1.28297">
        <ele>211</ele>
        <time>2017-06-11T22:17:17Z</time>
      </trkpt>
      <trkpt lat="45.09877" lon="1.27642">
        <ele>159</ele>
        <time>2017-06-11T22:37:17Z</time>
      </trkpt>
      <trkpt lat="45.09968" lon="1.2793">
        <ele>129</ele>
        <time>2017-06-11T22:43:17Z</time>
      </trkpt>
      <trkpt lat="45.10006" lon="1.27653">
        <ele>131</ele>
        <time>2017-06-11T22:49:17Z</time>
      </trkpt>
      <trkpt lat="45.10224" lon="1.27554">
        <ele>125</ele>
        <time>2017-06-11T22:55:17Z</time>
      </trkpt>
      <trkpt lat="45.10286" lon="1.27342">
        <ele>122</ele>
        <time>2017-06-11T23:01:17Z</time>
      </trkpt>
      <trkpt lat="45.10197" lon="1.2693">
        <ele>121</ele>
        <time>2017-06-11T23:07:17Z</time>
      </trkpt>
      <trkpt lat="45.10301" lon="1.26827">
        <ele>115</ele>
        <time>2017-06-11T23:09:17Z</time>
      </trkpt>
      <trkpt lat="45.10201" lon="1.26657">
        <ele>116</ele>
        <time>2017-06-11T23:17:17Z</time>
      </trkpt>
      <trkpt lat="45.10301" lon="1.26516">
        <ele>108</ele>
        <time>2017-06-11T23:21:17Z</time>
      </trkpt>
      <trkpt lat="45.10632" lon="1.26615">
        <ele>149</ele>
        <time>2017-06-11T23:31:17Z</time>
      </trkpt>
      <trkpt lat="45.10768" lon="1.269">
        <ele>184</ele>
        <time>2017-06-11T23:37:17Z</time>
      </trkpt>
      <trkpt lat="45.10919" lon="1.26969">
        <ele>209</ele>
        <time>2017-06-11T23:41:17Z</time>
      </trkpt>
      <trkpt lat="45.11012" lon="1.26818">
        <ele>227</ele>
        <time>2017-06-11T23:45:17Z</time>
      </trkpt>
      <trkpt lat="45.11357" lon="1.26836">
        <ele>238</ele>
        <time>2017-06-11T23:47:17Z</time>
      </trkpt>
      <trkpt lat="45.1171" lon="1.26675">
        <ele>230</ele>
        <time>2017-06-11T23:51:17Z</time>
      </trkpt>
      <trkpt lat="45.12029" lon="1.27344">
        <ele>264</ele>
        <time>2017-06-12T00:01:17Z</time>
      </trkpt>
      <trkpt lat="45.11967" lon="1.27812">
        <ele>248</ele>
        <time>2017-06-12T00:09:17Z</time>
      </trkpt>
      <trkpt lat="45.12105" lon="1.28267">
        <ele>258</ele>
        <time>2017-06-12T00:21:17Z</time>
      </trkpt>
      <trkpt lat="45.12312" lon="1.28428">
        <ele>235</ele>
        <time>2017-06-12T00:27:17Z</time>
      </trkpt>
      <trkpt lat="45.12338" lon="1.2878">
        <ele>221</ele>
        <time>2017-06-12T00:29:17Z</time>
      </trkpt>
      <trkpt lat="45.12496" lon="1.28677">
        <ele>222</ele>
        <time>2017-06-12T00:33:17Z</time>
      </trkpt>
      <trkpt lat="45.12574" lon="1.28798">
        <ele>188</ele>
        <time>2017-06-12T00:37:17Z</time>
      </trkpt>
      <trkpt lat="45.1258" lon="1.28674">
        <ele>176</ele>
        <time>2017-06-12T00:39:17Z</time>
      </trkpt>
      <trkpt lat="45.1261" lon="1.28777">
        <ele>167</ele>
        <time>2017-06-12T00:41:17Z</time>
      </trkpt>
      <trkpt lat="45.12627" lon="1.28649">
        <ele>152</ele>
        <time>2017-06-12T00:43:17Z</time>
      </trkpt>
      <trkpt lat="45.12518" lon="1.29586">
        <ele>98</ele>
        <time>2017-06-12T01:07:17Z</time>
      </trkpt>
      <trkpt lat="45.12782" lon="1.30528">
        <ele>102</ele>
        <time>2017-06-12T01:27:17Z</time>
      </trkpt>
      <trkpt lat="45.12923" lon="1.30468">
        <ele>87</ele>
        <time>2017-06-12T01:29:17Z</time>
      </trkpt>
    </trkseg>
  </trk>
</gpx>